Time;durP1;ratioP1;P1;durP2;ratioP2;P2;SDS_P1;SDS_P2;PMS_P1;PMS_P2;Temp;Humidity;BMP_temperature;BMP_pressure;BME280_temperature;BME280_humidity;BME280_pressure;Samples;Min_cycle;Max_cycle;Signal;HPM_P1;HPM_P2
2024/02/23 00:01:29;;;;;;;0.70;0.60;;;;;;;10.19;100.00;97858.47;7764978;22;20535;-68
2024/02/23 00:04:50;;;;;;;0.60;0.60;;;;;;;10.14;100.00;97867.16;7772623;22;20935;-68
2024/02/23 00:08:11;;;;;;;0.93;0.73;;;;;;;10.09;100.00;97855.34;7765740;22;20213;-68
2024/02/23 00:11:33;;;;;;;2.00;1.20;;;;;;;10.07;100.00;97909.38;7767495;22;20433;-69
2024/02/23 00:14:53;;;;;;;0.70;0.70;;;;;;;10.02;100.00;97889.50;7775714;22;20201;-68
2024/02/23 00:18:17;;;;;;;1.53;0.80;;;;;;;9.81;100.00;97895.03;7772137;22;20561;-68
2024/02/23 00:21:38;;;;;;;1.13;1.10;;;;;;;9.78;100.00;97936.66;7765382;22;20206;-69
2024/02/23 00:24:59;;;;;;;1.83;0.93;;;;;;;9.78;100.00;97915.13;7772029;22;20210;-68
2024/02/23 00:28:20;;;;;;;1.93;1.00;;;;;;;9.72;100.00;97910.53;7776285;22;20210;-67
2024/02/23 00:31:41;;;;;;;1.40;1.23;;;;;;;9.64;100.00;97914.25;7766421;22;20211;-68
2024/02/23 00:35:05;;;;;;;0.80;0.80;;;;;;;9.68;100.00;97913.88;7771099;22;20289;-68
2024/02/23 00:38:25;;;;;;;0.60;0.60;;;;;;;9.65;100.00;97937.47;7773284;22;20210;-69
2024/02/23 00:41:46;;;;;;;0.40;0.40;;;;;;;9.64;100.00;97938.47;7764069;22;20289;-68
2024/02/23 00:45:09;;;;;;;0.70;0.70;;;;;;;9.66;100.00;97940.94;7763941;22;20545;-69
2024/02/23 00:48:30;;;;;;;1.30;1.20;;;;;;;9.63;100.00;97936.81;7768846;22;20297;-68
2024/02/23 00:51:52;;;;;;;1.30;0.87;;;;;;;9.54;100.00;97948.78;7746594;22;20214;-68
2024/02/23 00:55:13;;;;;;;0.40;0.37;;;;;;;9.29;100.00;97996.03;7767025;22;20898;-69
2024/02/23 00:58:34;;;;;;;0.50;0.50;;;;;;;7.97;100.00;98055.00;7771278;22;20226;-68
2024/02/23 01:01:55;;;;;;;2.07;0.63;;;;;;;7.47;100.00;98087.13;7756728;22;20206;-68
2024/02/23 01:05:16;;;;;;;0.30;0.30;;;;;;;7.16;100.00;98089.16;7762182;22;20485;-68
2024/02/23 01:08:40;;;;;;;0.47;0.47;;;;;;;7.24;100.00;98092.59;7770200;22;20214;-68
2024/02/23 01:12:01;;;;;;;0.30;0.30;;;;;;;7.32;100.00;98113.13;7764688;22;20210;-68
2024/02/23 01:15:22;;;;;;;1.57;0.83;;;;;;;7.37;100.00;98109.88;7758809;22;20203;-69
2024/02/23 01:18:44;;;;;;;0.50;0.50;;;;;;;7.44;100.00;98103.59;7771343;22;20218;-68
2024/02/23 01:22:05;;;;;;;0.60;0.60;;;;;;;7.42;100.00;98145.84;7761375;22;20207;-68
2024/02/23 01:25:27;;;;;;;0.67;0.67;;;;;;;7.38;100.00;98149.91;7769613;22;20256;-68
2024/02/23 01:28:48;;;;;;;0.63;0.63;;;;;;;7.35;100.00;98146.72;7776708;22;20215;-68
2024/02/23 01:32:09;;;;;;;0.53;0.53;;;;;;;7.38;100.00;98178.53;7762346;22;20292;-67
2024/02/23 01:35:30;;;;;;;0.60;0.60;;;;;;;7.37;100.00;98155.41;7768899;22;21142;-67
2024/02/23 01:38:51;;;;;;;0.97;0.50;;;;;;;7.36;100.00;98164.50;7772110;22;20533;-69
2024/02/23 01:42:13;;;;;;;0.80;0.80;;;;;;;7.35;100.00;98203.84;7767831;22;20210;-69
2024/02/23 01:45:34;;;;;;;0.80;0.80;;;;;;;7.40;100.00;98198.78;7767350;22;20463;-69
2024/02/23 01:48:55;;;;;;;0.73;0.70;;;;;;;7.33;100.00;98211.22;7774369;22;20207;-69
2024/02/23 01:52:16;;;;;;;0.80;0.80;;;;;;;7.41;100.00;98224.56;7768910;22;20210;-67
2024/02/23 01:55:37;;;;;;;0.60;0.60;;;;;;;7.47;100.00;98228.38;7770154;22;20485;-69
2024/02/23 01:59:02;;;;;;;0.50;0.50;;;;;;;7.40;100.00;98267.63;7754559;22;20573;-68
2024/02/23 02:02:23;;;;;;;0.43;0.43;;;;;;;7.43;100.00;98267.25;7766754;22;20206;-68
2024/02/23 02:05:45;;;;;;;0.60;0.60;;;;;;;7.32;100.00;98279.25;7767721;22;20217;-68
2024/02/23 02:09:06;;;;;;;0.30;0.30;;;;;;;7.28;100.00;98302.03;7774616;22;20207;-68
2024/02/23 02:12:28;;;;;;;0.50;0.50;;;;;;;7.22;100.00;98326.88;7768321;22;20214;-68
2024/02/23 02:15:52;;;;;;;0.67;0.30;;;;;;;7.17;100.00;98367.59;7768520;22;20685;-68
2024/02/23 02:19:13;;;;;;;0.30;0.30;;;;;;;7.11;100.00;98352.22;7772518;22;20210;-67
2024/02/23 02:22:34;;;;;;;1.50;0.40;;;;;;;7.13;100.00;98354.72;7760885;22;20233;-68
2024/02/23 02:25:56;;;;;;;2.17;0.80;;;;;;;7.19;100.00;98365.59;7766947;22;20210;-68
2024/02/23 02:29:17;;;;;;;0.83;0.83;;;;;;;7.04;100.00;98353.94;7772650;22;20206;-68
2024/02/23 02:32:39;;;;;;;0.57;0.57;;;;;;;6.94;100.00;98365.88;7761996;22;20219;-67
2024/02/23 02:36:03;;;;;;;0.50;0.50;;;;;;;6.93;100.00;98388.31;7768696;22;20210;-67
2024/02/23 02:39:23;;;;;;;0.67;0.67;;;;;;;6.82;100.00;98427.00;7777188;22;20560;-68
2024/02/23 02:42:44;;;;;;;0.60;0.60;;;;;;;6.70;100.00;98408.81;7761202;22;20459;-69
2024/02/23 02:46:05;;;;;;;0.40;0.40;;;;;;;6.67;100.00;98425.22;7762890;22;20210;-69
2024/02/23 02:49:28;;;;;;;0.50;0.50;;;;;;;6.61;100.00;98417.88;7773055;22;20206;-69
2024/02/23 02:52:49;;;;;;;1.33;0.50;;;;;;;6.51;100.00;98428.75;7766251;22;20252;-67
2024/02/23 02:56:10;;;;;;;0.50;0.50;;;;;;;6.45;100.00;98456.22;7768601;22;20221;-69
2024/02/23 02:59:34;;;;;;;0.60;0.60;;;;;;;6.36;100.00;98508.88;7774490;22;20219;-68
2024/02/23 03:02:55;;;;;;;0.40;0.40;;;;;;;6.33;100.00;98497.69;7740569;22;20214;-68
2024/02/23 03:06:18;;;;;;;0.40;0.40;;;;;;;6.31;100.00;98505.91;7750519;22;20564;-67
2024/02/23 03:09:39;;;;;;;0.40;0.40;;;;;;;6.28;100.00;98511.56;7775995;22;20256;-67
2024/02/23 03:13:00;;;;;;;0.40;0.40;;;;;;;6.28;100.00;98532.13;7743375;22;20214;-68
2024/02/23 03:16:23;;;;;;;1.50;0.73;;;;;;;6.21;100.00;98507.91;7750076;22;20206;-69
2024/02/23 03:19:43;;;;;;;0.40;0.40;;;;;;;6.23;100.00;98554.06;7754852;22;20218;-69
2024/02/23 03:23:06;;;;;;;0.60;0.60;;;;;;;6.23;100.00;98538.00;7772415;22;20831;-69
2024/02/23 03:26:27;;;;;;;0.77;0.77;;;;;;;6.22;100.00;98533.66;7768540;22;20214;-69
2024/02/23 03:29:50;;;;;;;1.00;0.90;;;;;;;6.34;100.00;98551.03;7776687;22;20211;-68
2024/02/23 03:33:10;;;;;;;1.43;0.70;;;;;;;6.35;100.00;98567.94;7773447;22;20210;-68
2024/02/23 03:36:34;;;;;;;0.60;0.60;;;;;;;6.31;100.00;98574.63;7766449;22;20539;-68
2024/02/23 03:40:00;;;;;;;0.70;0.70;;;;;;;6.21;100.00;98596.19;7759918;22;20218;-68
2024/02/23 03:43:21;;;;;;;0.73;0.73;;;;;;;6.08;100.00;98574.41;7763211;22;20214;-67
2024/02/23 03:46:42;;;;;;;0.80;0.80;;;;;;;6.09;100.00;98570.72;7739872;22;20285;-68
2024/02/23 03:50:03;;;;;;;0.50;0.50;;;;;;;6.05;100.00;98569.38;7775218;22;20214;-68
2024/02/23 03:53:24;;;;;;;0.60;0.60;;;;;;;6.04;100.00;98583.78;7774112;22;20232;-68
2024/02/23 03:56:46;;;;;;;0.70;0.70;;;;;;;5.98;100.00;98576.41;7761207;22;20214;-68
2024/02/23 04:00:09;;;;;;;0.70;0.70;;;;;;;5.99;100.00;98596.78;7769555;22;20883;-67
2024/02/23 04:03:34;;;;;;;0.63;0.63;;;;;;;5.96;100.00;98596.28;7771601;22;20210;-68
2024/02/23 04:06:55;;;;;;;0.63;0.63;;;;;;;5.88;100.00;98628.34;7747148;22;20214;-71
2024/02/23 04:10:16;;;;;;;0.67;0.67;;;;;;;5.86;100.00;98607.09;7770589;22;20214;-69
2024/02/23 04:13:38;;;;;;;0.60;0.60;;;;;;;5.87;100.00;98619.50;7775077;22;20214;-68
2024/02/23 04:16:59;;;;;;;0.53;0.53;;;;;;;5.88;100.00;98645.25;7761593;22;20214;-67
2024/02/23 04:20:20;;;;;;;1.13;1.13;;;;;;;5.87;100.00;98638.19;7768570;22;20795;-67
2024/02/23 04:23:41;;;;;;;0.83;0.70;;;;;;;5.92;100.00;98646.59;7774847;22;20214;-67
2024/02/23 04:27:02;;;;;;;0.70;0.70;;;;;;;5.94;100.00;98647.25;7770757;22;20215;-68
2024/02/23 04:30:25;;;;;;;0.90;0.90;;;;;;;5.95;100.00;98669.47;7767400;22;20202;-69
2024/02/23 04:33:46;;;;;;;0.90;0.90;;;;;;;6.00;100.00;98668.00;7773494;22;20703;-67
2024/02/23 04:37:07;;;;;;;0.80;0.70;;;;;;;5.96;100.00;98701.41;7766399;22;20214;-69
2024/02/23 04:40:28;;;;;;;0.83;0.83;;;;;;;5.92;100.00;98697.38;7766318;22;20305;-68
2024/02/23 04:43:49;;;;;;;2.17;1.07;;;;;;;6.00;100.00;98688.56;7774974;22;20214;-68
2024/02/23 04:47:12;;;;;;;0.67;0.67;;;;;;;5.90;100.00;98685.19;7763231;22;20218;-68
2024/02/23 04:50:32;;;;;;;0.80;0.80;;;;;;;5.92;100.00;98689.38;7766252;22;20210;-69
2024/02/23 04:53:53;;;;;;;1.57;1.00;;;;;;;5.92;100.00;98692.03;7776732;22;20556;-68
2024/02/23 04:57:15;;;;;;;1.33;1.23;;;;;;;5.96;100.00;98720.13;7769445;22;20210;-68
2024/02/23 05:00:35;;;;;;;0.90;0.90;;;;;;;5.91;100.00;98725.09;7763123;22;20226;-70
2024/02/23 05:03:58;;;;;;;0.90;0.90;;;;;;;5.84;100.00;98718.72;7769328;22;20210;-67
2024/02/23 05:07:18;;;;;;;1.80;0.90;;;;;;;5.83;100.00;98724.19;7764055;22;20210;-69
2024/02/23 05:10:39;;;;;;;2.97;1.30;;;;;;;5.84;100.00;98742.78;7765989;22;20249;-67
2024/02/23 05:14:00;;;;;;;1.63;1.43;;;;;;;5.77;100.00;98724.84;7774629;22;20729;-67
2024/02/23 05:17:21;;;;;;;2.10;1.27;;;;;;;5.77;100.00;98759.59;7765219;22;20210;-68
2024/02/23 05:20:44;;;;;;;1.47;1.37;;;;;;;5.76;100.00;98776.63;7769640;22;20206;-69
2024/02/23 05:24:05;;;;;;;1.00;1.00;;;;;;;5.74;100.00;98739.34;7769347;22;20214;-68
2024/02/23 05:27:27;;;;;;;1.43;1.33;;;;;;;5.75;100.00;98746.38;7767040;22;20215;-68
2024/02/23 05:30:48;;;;;;;1.17;1.07;;;;;;;5.86;100.00;98746.13;7764136;22;20210;-67
2024/02/23 05:34:09;;;;;;;1.30;1.20;;;;;;;5.80;100.00;98765.44;7774580;22;20214;-68
2024/02/23 05:37:31;;;;;;;1.37;1.13;;;;;;;5.81;100.00;98774.31;7750339;22;20252;-70
2024/02/23 05:40:52;;;;;;;3.20;1.27;;;;;;;5.81;100.00;98782.31;7766441;22;20288;-68
2024/02/23 05:44:13;;;;;;;5.00;1.87;;;;;;;5.84;100.00;98774.84;7773768;22;20206;-68
2024/02/23 05:47:34;;;;;;;2.67;1.20;;;;;;;5.86;100.00;98764.84;7763375;22;20219;-67
2024/02/23 05:50:56;;;;;;;2.40;1.50;;;;;;;5.94;100.00;98780.97;7747225;22;20562;-68
2024/02/23 05:54:20;;;;;;;1.30;1.27;;;;;;;5.82;100.00;98798.19;7771360;22;20581;-69
2024/02/23 05:57:42;;;;;;;3.27;1.53;;;;;;;5.91;100.00;98801.81;7764431;22;20214;-68
2024/02/23 06:01:03;;;;;;;1.27;1.17;;;;;;;5.90;100.00;98819.69;7756486;22;20207;-67
2024/02/23 06:04:24;;;;;;;1.93;1.47;;;;;;;5.86;100.00;98812.97;7771078;22;20214;-68
2024/02/23 06:07:45;;;;;;;2.13;1.57;;;;;;;5.92;100.00;98822.22;7764825;22;20303;-67
2024/02/23 06:11:10;;;;;;;1.80;1.70;;;;;;;5.88;100.00;98843.09;7765594;22;20210;-68
2024/02/23 06:14:30;;;;;;;0.87;0.87;;;;;;;5.84;100.00;98844.38;7775140;22;20486;-67
2024/02/23 06:17:52;;;;;;;2.33;1.20;;;;;;;5.77;100.00;98861.16;7765944;22;20300;-68
2024/02/23 06:21:17;;;;;;;1.60;1.47;;;;;;;5.79;100.00;98857.34;7763226;22;20483;-69
2024/02/23 06:24:38;;;;;;;1.33;1.10;;;;;;;5.75;100.00;98855.13;7774614;22;21111;-68
2024/02/23 06:28:00;;;;;;;1.53;1.00;;;;;;;5.76;100.00;98867.53;7770135;22;20210;-67
2024/02/23 06:31:21;;;;;;;2.30;1.40;;;;;;;5.69;100.00;98873.47;7736895;22;20210;-65
2024/02/23 06:34:42;;;;;;;4.77;1.83;;;;;;;5.76;100.00;98884.38;7742116;22;20219;-66
2024/02/23 06:38:04;;;;;;;1.20;1.20;;;;;;;5.69;100.00;98894.03;7758074;22;20214;-67
2024/02/23 06:41:25;;;;;;;1.63;1.10;;;;;;;5.75;100.00;98896.06;7750414;22;20218;-68
2024/02/23 06:44:48;;;;;;;1.60;1.33;;;;;;;5.69;100.00;98899.38;7773558;22;20576;-67
2024/02/23 06:48:09;;;;;;;4.70;1.70;;;;;;;5.68;100.00;98921.72;7768289;22;20210;-68
2024/02/23 06:51:30;;;;;;;3.03;2.10;;;;;;;5.65;100.00;98938.91;7764878;22;20877;-67
2024/02/23 06:54:51;;;;;;;1.53;1.43;;;;;;;5.57;100.00;98938.84;7772522;22;20545;-68
2024/02/23 06:58:14;;;;;;;1.57;1.47;;;;;;;5.62;100.00;98930.38;7776100;22;20210;-69
2024/02/23 07:01:37;;;;;;;4.10;2.37;;;;;;;5.63;100.00;98945.44;7757951;22;20207;-68
2024/02/23 07:04:59;;;;;;;1.50;1.40;;;;;;;5.70;100.00;98951.81;7773973;22;20214;-68
2024/02/23 07:08:19;;;;;;;1.50;1.40;;;;;;;5.60;100.00;98975.97;7746222;22;20360;-68
2024/02/23 07:11:43;;;;;;;5.47;1.50;;;;;;;5.76;100.00;98969.91;7765834;22;20877;-68
2024/02/23 07:15:05;;;;;;;2.10;1.93;;;;;;;5.85;100.00;98981.56;7776731;22;20281;-66
2024/02/23 07:18:28;;;;;;;3.03;1.97;;;;;;;5.85;100.00;98984.25;7770444;22;20218;-68
2024/02/23 07:21:49;;;;;;;2.00;1.90;;;;;;;5.90;100.00;98982.81;7769282;22;20206;-68
2024/02/23 07:25:10;;;;;;;1.60;1.47;;;;;;;5.93;100.00;98987.81;7772488;22;20636;-68
2024/02/23 07:28:33;;;;;;;1.73;1.63;;;;;;;5.94;100.00;99000.22;7773329;22;20248;-68
2024/02/23 07:31:53;;;;;;;1.43;1.33;;;;;;;5.89;100.00;98983.78;7769885;22;20281;-68
2024/02/23 07:35:16;;;;;;;1.70;1.60;;;;;;;5.93;100.00;98998.53;7771352;22;20558;-67
2024/02/23 07:38:37;;;;;;;1.90;1.70;;;;;;;5.99;100.00;98978.34;7774815;22;20214;-69
2024/02/23 07:41:58;;;;;;;2.17;1.37;;;;;;;6.06;100.00;98992.78;7740836;22;20214;-68
2024/02/23 07:45:19;;;;;;;1.40;1.30;;;;;;;6.10;100.00;98988.81;7768386;22;20256;-67
2024/02/23 07:48:40;;;;;;;3.30;2.00;;;;;;;6.30;100.00;99001.84;7770321;22;20214;-66
2024/02/23 07:52:03;;;;;;;2.00;1.80;;;;;;;6.22;100.00;99008.97;7768292;22;20608;-68
2024/02/23 07:55:24;;;;;;;1.90;1.80;;;;;;;6.27;100.00;99007.53;7771471;22;21427;-67
2024/02/23 07:58:45;;;;;;;4.37;2.33;;;;;;;6.30;100.00;98996.50;7773235;22;20211;-68
2024/02/23 08:02:06;;;;;;;2.30;1.83;;;;;;;6.51;100.00;99003.38;7761899;22;20203;-66
2024/02/23 08:05:27;;;;;;;2.70;2.03;;;;;;;6.47;100.00;99019.72;7769585;22;20214;-67
2024/02/23 08:08:50;;;;;;;4.40;2.63;;;;;;;6.54;100.00;99006.56;7776492;22;20218;-68
2024/02/23 08:12:11;;;;;;;2.97;2.20;;;;;;;6.63;100.00;99020.84;7765825;22;20608;-68
2024/02/23 08:15:31;;;;;;;4.90;2.40;;;;;;;6.66;100.00;99017.84;7769875;22;20380;-68
2024/02/23 08:18:52;;;;;;;2.43;1.80;;;;;;;6.71;100.00;99031.59;7771413;22;20203;-68
2024/02/23 08:22:13;;;;;;;0.90;0.90;;;;;;;6.57;100.00;99049.06;7768332;22;20250;-69
2024/02/23 08:25:35;;;;;;;3.23;1.73;;;;;;;6.72;100.00;99031.44;7769030;22;20297;-65
2024/02/23 08:28:56;;;;;;;2.87;2.63;;;;;;;6.70;100.00;99049.50;7772649;22;20226;-67
2024/02/23 08:32:18;;;;;;;1.73;1.63;;;;;;;6.83;100.00;99046.41;7740160;22;20210;-65
2024/02/23 08:35:39;;;;;;;7.57;2.33;;;;;;;7.01;100.00;99055.22;7766473;22;20214;-66
2024/02/23 08:39:00;;;;;;;2.37;1.70;;;;;;;7.02;100.00;99063.13;7775195;22;20214;-68
2024/02/23 08:42:23;;;;;;;19.57;2.03;;;;;;;7.11;100.00;99064.81;7773033;22;20207;-68
2024/02/23 08:45:44;;;;;;;2.33;1.63;;;;;;;7.05;100.00;99076.16;7771321;22;20261;-68
2024/02/23 08:49:05;;;;;;;2.73;1.17;;;;;;;7.04;100.00;99077.19;7773762;22;20206;-68
2024/02/23 08:52:26;;;;;;;2.90;1.43;;;;;;;7.02;100.00;99076.50;7767435;22;20214;-68
2024/02/23 08:55:47;;;;;;;1.30;1.20;;;;;;;7.00;100.00;99099.09;7748517;22;20210;-68
2024/02/23 08:59:10;;;;;;;5.50;1.93;;;;;;;7.08;100.00;99097.31;7777884;22;20232;-69
2024/02/23 09:02:32;;;;;;;4.00;1.60;;;;;;;7.13;100.00;99083.44;7762703;22;20202;-67
2024/02/23 09:05:56;;;;;;;3.87;2.07;;;;;;;7.30;100.00;99090.56;7772039;22;20636;-68
2024/02/23 09:09:17;;;;;;;10.23;2.37;;;;;;;7.11;100.00;99110.38;7777663;22;20581;-70
2024/02/23 09:12:39;;;;;;;4.43;1.50;;;;;;;7.11;100.00;99130.97;7771921;22;20215;-67
2024/02/23 09:16:02;;;;;;;1.77;1.50;;;;;;;7.23;100.00;99110.97;7769010;22;20214;-66
2024/02/23 09:19:23;;;;;;;1.40;1.30;;;;;;;7.14;100.00;99117.25;7777646;22;20244;-68
2024/02/23 09:22:44;;;;;;;3.63;1.83;;;;;;;7.10;100.00;99126.59;7767990;22;20214;-67
2024/02/23 09:26:09;;;;;;;2.93;1.53;;;;;;;7.06;100.00;99136.81;7773299;22;20207;-68
2024/02/23 09:29:30;;;;;;;5.40;1.93;;;;;;;7.14;100.00;99127.97;7775287;22;20663;-67
2024/02/23 09:32:52;;;;;;;3.27;1.17;;;;;;;7.07;100.00;99154.53;7764492;22;20297;-67
2024/02/23 09:36:13;;;;;;;1.80;1.43;;;;;;;7.18;100.00;99142.72;7764257;22;20215;-67
2024/02/23 09:39:34;;;;;;;2.03;1.20;;;;;;;7.22;100.00;99136.91;7775685;22;20540;-67
2024/02/23 09:42:57;;;;;;;1.50;1.40;;;;;;;7.34;100.00;99150.91;7767231;22;20254;-66
2024/02/23 09:46:18;;;;;;;2.30;1.80;;;;;;;7.60;100.00;99172.31;7748816;22;20210;-66
2024/02/23 09:49:41;;;;;;;2.73;1.87;;;;;;;8.29;100.00;99167.59;7751438;22;20214;-67
2024/02/23 09:53:08;;;;;;;1.40;1.30;;;;;;;9.33;100.00;99185.66;7767099;22;20517;-68
2024/02/23 09:56:29;;;;;;;2.83;1.90;;;;;;;8.05;100.00;99181.75;7771020;22;20453;-67
2024/02/23 09:59:51;;;;;;;3.73;1.57;;;;;;;7.74;100.00;99193.19;7779016;22;20703;-68
2024/02/23 10:03:12;;;;;;;2.33;1.63;;;;;;;7.96;100.00;99195.31;7772111;22;20202;-67
2024/02/23 10:06:34;;;;;;;1.63;1.50;;;;;;;7.91;100.00;99206.50;7771793;22;20214;-66
2024/02/23 10:09:55;;;;;;;4.83;2.90;;;;;;;7.95;100.00;99207.03;7773830;22;20210;-67
2024/02/23 10:13:20;;;;;;;1.87;1.77;;;;;;;8.33;100.00;99213.75;7773900;22;20242;-67
2024/02/23 10:16:41;;;;;;;4.77;2.23;;;;;;;7.94;100.00;99222.31;7754994;22;20215;-66
2024/02/23 10:20:04;;;;;;;2.37;1.53;;;;;;;9.02;100.00;99222.28;7767474;22;20302;-71
2024/02/23 10:23:26;;;;;;;1.90;1.80;;;;;;;9.79;100.00;99207.44;7751497;22;20206;-71
2024/02/23 10:26:47;;;;;;;1.77;1.60;;;;;;;11.64;100.00;99207.13;7765576;22;20258;-71
2024/02/23 10:30:11;;;;;;;1.90;1.27;;;;;;;13.65;100.00;99211.66;7772030;22;20218;-69
2024/02/23 10:33:32;;;;;;;3.93;1.90;;;;;;;9.52;100.00;99249.00;7770695;22;21623;-70
2024/02/23 10:36:54;;;;;;;3.03;1.53;;;;;;;8.84;100.00;99249.31;7763548;22;20292;-67
2024/02/23 10:40:18;;;;;;;2.00;1.60;;;;;;;8.62;100.00;99284.00;7765755;22;20214;-66
2024/02/23 10:43:44;;;;;;;3.07;1.70;;;;;;;8.74;100.00;99231.69;7773289;22;20222;-67
2024/02/23 10:47:05;;;;;;;3.53;1.77;;;;;;;9.01;100.00;99244.78;7753160;22;20214;-68
2024/02/23 10:50:27;;;;;;;1.50;1.30;;;;;;;8.60;100.00;99243.03;7771739;22;20404;-67
2024/02/23 10:53:49;;;;;;;1.67;1.43;;;;;;;8.41;100.00;99237.94;7773336;22;20863;-68
2024/02/23 10:57:13;;;;;;;4.13;2.37;;;;;;;8.33;100.00;99256.72;7768274;22;20262;-67
2024/02/23 11:00:34;;;;;;;1.33;1.13;;;;;;;8.12;100.00;99267.81;7745995;22;20295;-66
2024/02/23 11:03:56;;;;;;;2.53;1.07;;;;;;;8.22;100.00;99257.81;7774752;22;20289;-67
2024/02/23 11:07:19;;;;;;;1.80;1.57;;;;;;;8.39;100.00;99258.75;7747695;22;20514;-68
2024/02/23 11:10:43;;;;;;;2.50;1.33;;;;;;;9.23;100.00;99252.22;7768888;22;20214;-67
2024/02/23 11:14:09;;;;;;;1.63;1.53;;;;;;;8.65;100.00;99248.78;7735707;22;20207;-71
2024/02/23 11:17:32;;;;;;;1.70;1.60;;;;;;;8.35;100.00;99258.22;7762930;22;20203;-66
2024/02/23 11:20:57;;;;;;;1.37;1.10;;;;;;;8.23;100.00;99269.38;7766388;22;20214;-67
2024/02/23 11:24:17;;;;;;;3.93;1.30;;;;;;;8.32;100.00;99269.31;7776821;22;20553;-69
2024/02/23 11:27:40;;;;;;;3.57;1.20;;;;;;;8.15;100.00;99263.97;7748368;22;20302;-67
2024/02/23 11:31:11;;;;;;;1.67;1.30;;;;;;;8.14;100.00;99294.50;7759790;22;20218;-65
2024/02/23 11:34:32;;;;;;;1.97;1.87;;;;;;;8.21;100.00;99264.19;7774563;22;20206;-67
2024/02/23 11:37:58;;;;;;;1.17;1.07;;;;;;;8.13;100.00;99274.03;7761801;22;20452;-67
2024/02/23 11:41:20;;;;;;;3.40;2.63;;;;;;;8.24;100.00;99249.63;7753289;22;20297;-68
2024/02/23 11:44:41;;;;;;;2.43;1.67;;;;;;;8.29;100.00;99258.03;7780354;22;20214;-68
2024/02/23 11:48:05;;;;;;;2.63;1.10;;;;;;;8.50;100.00;99255.78;7763514;22;20452;-70
2024/02/23 11:51:29;;;;;;;3.93;1.77;;;;;;;8.69;100.00;99244.75;7762422;22;20206;-67
2024/02/23 11:54:50;;;;;;;0.63;0.60;;;;;;;8.32;100.00;99252.34;7777312;22;20214;-67
2024/02/23 11:58:10;;;;;;;2.83;2.03;;;;;;;8.47;100.00;99245.38;7774559;22;20210;-67
2024/02/23 12:01:32;;;;;;;1.73;1.47;;;;;;;8.56;100.00;99234.47;7770858;22;20214;-68
2024/02/23 12:04:54;;;;;;;3.00;1.50;;;;;;;8.66;100.00;99239.69;7778048;22;20290;-67
2024/02/23 12:08:16;;;;;;;4.83;2.23;;;;;;;8.54;100.00;99246.38;7774638;22;20454;-67
2024/02/23 12:11:36;;;;;;;2.73;1.77;;;;;;;8.46;100.00;99249.03;7771418;22;20210;-67
2024/02/23 12:14:58;;;;;;;2.73;1.07;;;;;;;8.34;100.00;99247.66;7779796;22;20293;-67
2024/02/23 12:18:23;;;;;;;3.40;1.63;;;;;;;8.35;100.00;99242.13;7772678;22;20214;-67
2024/02/23 12:21:47;;;;;;;2.07;1.30;;;;;;;8.32;100.00;99249.66;7765117;22;20222;-68
2024/02/23 12:25:08;;;;;;;2.73;1.03;;;;;;;8.47;100.00;99256.94;7768101;22;20207;-68
2024/02/23 12:28:29;;;;;;;6.50;1.70;;;;;;;8.35;100.00;99257.38;7772586;22;20214;-67
2024/02/23 12:31:51;;;;;;;1.40;1.30;;;;;;;8.35;100.00;99252.00;7760354;22;20219;-66
2024/02/23 12:35:12;;;;;;;1.50;1.40;;;;;;;8.24;100.00;99261.16;7771804;22;20452;-66
2024/02/23 12:38:36;;;;;;;1.70;1.60;;;;;;;8.34;100.00;99245.84;7774867;22;20353;-66
2024/02/23 12:41:58;;;;;;;2.20;1.40;;;;;;;8.39;100.00;99254.22;7769807;22;20211;-67
2024/02/23 12:45:19;;;;;;;1.37;1.20;;;;;;;8.36;100.00;99256.41;7755408;22;20210;-68
2024/02/23 12:48:40;;;;;;;6.10;1.50;;;;;;;8.42;100.00;99253.91;7771142;22;20214;-68
2024/02/23 12:52:00;;;;;;;1.53;1.30;;;;;;;8.47;100.00;99248.06;7768008;22;20218;-67
2024/02/23 12:55:24;;;;;;;5.27;1.80;;;;;;;8.68;100.00;99256.47;7768880;22;20214;-68
2024/02/23 12:58:45;;;;;;;0.80;0.80;;;;;;;8.92;100.00;99244.97;7753535;22;20211;-65
2024/02/23 13:02:09;;;;;;;1.83;1.60;;;;;;;8.56;100.00;99249.75;7764358;22;20218;-66
2024/02/23 13:05:30;;;;;;;1.20;1.10;;;;;;;8.53;100.00;99248.22;7762527;22;20896;-65
2024/02/23 13:08:51;;;;;;;1.90;1.33;;;;;;;8.62;100.00;99279.47;7745097;22;20227;-65
2024/02/23 13:12:14;;;;;;;1.53;1.40;;;;;;;8.89;100.00;99269.50;7769832;22;20248;-67
2024/02/23 13:15:37;;;;;;;2.07;1.77;;;;;;;8.66;100.00;99275.47;7762384;22;20685;-66
2024/02/23 13:18:58;;;;;;;1.97;1.67;;;;;;;8.49;100.00;99289.84;7774496;22;20323;-66
2024/02/23 13:22:19;;;;;;;1.07;1.00;;;;;;;8.59;100.00;99297.78;7767818;22;20233;-66
2024/02/23 13:25:40;;;;;;;1.80;1.10;;;;;;;8.74;100.00;99293.47;7772412;22;20468;-66
2024/02/23 13:29:02;;;;;;;4.47;1.07;;;;;;;8.60;100.00;99284.19;7779683;22;20439;-66
2024/02/23 13:32:23;;;;;;;0.80;0.80;;;;;;;8.57;100.00;99295.22;7763063;22;20797;-67
2024/02/23 13:35:44;;;;;;;2.87;1.23;;;;;;;8.60;100.00;99294.06;7767833;22;20218;-67
2024/02/23 13:39:05;;;;;;;1.63;0.90;;;;;;;8.60;100.00;99296.75;7737781;22;20247;-67
2024/02/23 13:42:26;;;;;;;1.30;1.10;;;;;;;8.61;100.00;99298.44;7771540;22;20218;-67
2024/02/23 13:45:53;;;;;;;1.20;1.10;;;;;;;8.68;100.00;99300.31;7773324;22;20218;-67
2024/02/23 13:49:14;;;;;;;3.57;1.50;;;;;;;8.64;100.00;99295.41;7773672;22;20813;-69
2024/02/23 13:52:35;;;;;;;1.43;1.07;;;;;;;8.62;100.00;99287.53;7763111;22;20600;-66
2024/02/23 13:55:56;;;;;;;1.60;1.00;;;;;;;8.60;100.00;99300.28;7775369;22;20210;-66
2024/02/23 13:59:17;;;;;;;9.43;1.90;;;;;;;8.62;100.00;99303.66;7738724;22;20210;-66
2024/02/23 14:02:40;;;;;;;1.27;1.17;;;;;;;8.65;100.00;99313.25;7768191;22;20442;-67
2024/02/23 14:06:01;;;;;;;0.80;0.80;;;;;;;8.70;100.00;99332.38;7755566;22;20582;-67
2024/02/23 14:09:22;;;;;;;1.73;1.00;;;;;;;8.70;100.00;99305.50;7779724;22;20214;-67
2024/02/23 14:12:43;;;;;;;1.47;1.37;;;;;;;8.69;100.00;99310.06;7772039;22;20230;-68
2024/02/23 14:16:05;;;;;;;2.30;1.60;;;;;;;8.80;100.00;99287.44;7767420;22;20214;-67
2024/02/23 14:19:27;;;;;;;3.57;1.13;;;;;;;8.83;100.00;99306.75;7776201;22;20308;-67
2024/02/23 14:22:50;;;;;;;1.00;1.00;;;;;;;8.81;100.00;99302.53;7773512;22;20214;-68
2024/02/23 14:26:12;;;;;;;2.00;1.43;;;;;;;8.91;100.00;99305.09;7756983;22;20232;-67
2024/02/23 14:29:33;;;;;;;2.60;1.00;;;;;;;9.19;100.00;99288.50;7781104;22;20214;-67
2024/02/23 14:32:54;;;;;;;1.50;0.97;;;;;;;9.28;100.00;99286.69;7744079;22;20215;-67
2024/02/23 14:36:16;;;;;;;0.60;0.60;;;;;;;9.22;100.00;99285.47;7758744;22;20207;-68
2024/02/23 14:39:37;;;;;;;1.80;1.60;;;;;;;10.11;99.26;99277.38;7779886;22;20608;-67
2024/02/23 14:42:58;;;;;;;1.30;1.10;;;;;;;9.88;97.07;99282.59;7749096;22;20214;-67
2024/02/23 14:46:19;;;;;;;2.67;1.20;;;;;;;9.16;98.38;99286.16;7770489;22;20462;-67
2024/02/23 14:49:40;;;;;;;1.00;0.93;;;;;;;9.06;100.00;99290.84;7778851;22;20543;-68
2024/02/23 14:53:03;;;;;;;4.20;1.43;;;;;;;9.15;100.00;99294.38;7773075;22;20214;-67
2024/02/23 14:56:24;;;;;;;2.87;0.97;;;;;;;9.00;100.00;99296.03;7771525;22;20460;-67
2024/02/23 14:59:46;;;;;;;3.90;1.63;;;;;;;8.97;100.00;99291.00;7727594;22;20210;-67
2024/02/23 15:03:08;;;;;;;1.80;1.53;;;;;;;9.00;100.00;99296.03;7775042;22;20215;-66
2024/02/23 15:06:29;;;;;;;1.10;1.10;;;;;;;9.09;100.00;99305.81;7770247;22;20510;-68
2024/02/23 15:09:51;;;;;;;1.73;1.63;;;;;;;9.08;100.00;99312.16;7779073;22;20245;-67
2024/02/23 15:13:12;;;;;;;1.13;1.03;;;;;;;9.14;100.00;99311.50;7776876;22;20214;-67
2024/02/23 15:16:33;;;;;;;2.70;1.23;;;;;;;9.08;100.00;99307.66;7759405;22;20217;-68
2024/02/23 15:19:54;;;;;;;3.40;1.70;;;;;;;9.05;100.00;99315.22;7778709;22;20211;-69
2024/02/23 15:23:15;;;;;;;2.27;1.13;;;;;;;9.00;100.00;99318.38;7769617;22;20277;-69
2024/02/23 15:26:38;;;;;;;0.93;0.87;;;;;;;9.05;100.00;99308.00;7770582;22;20210;-69
2024/02/23 15:29:59;;;;;;;1.37;1.27;;;;;;;9.11;100.00;99310.00;7780756;22;20483;-69
2024/02/23 15:33:20;;;;;;;1.03;0.93;;;;;;;9.12;100.00;99310.84;7774760;22;20210;-68
2024/02/23 15:36:41;;;;;;;6.80;1.53;;;;;;;9.13;100.00;99321.44;7756079;22;20211;-69
2024/02/23 15:40:04;;;;;;;1.07;1.00;;;;;;;9.14;100.00;99319.56;7778485;22;20300;-68
2024/02/23 15:43:27;;;;;;;3.23;1.30;;;;;;;9.11;100.00;99318.06;7779497;22;20226;-69
2024/02/23 15:46:48;;;;;;;5.13;1.30;;;;;;;9.04;100.00;99327.78;7770726;22;20222;-68
2024/02/23 15:50:11;;;;;;;1.63;1.53;;;;;;;9.04;100.00;99325.09;7770575;22;20301;-68